createdAt,value
2023-01-09T00:02:25.890Z,98248.59
2023-01-09T00:04:54.748Z,98244.44
2023-01-09T00:07:22.207Z,98246.94
2023-01-09T00:09:50.486Z,98250.94
2023-01-09T00:12:18.071Z,98249.81
2023-01-09T00:14:45.626Z,98259.66
2023-01-09T00:17:13.033Z,98266.00
2023-01-09T00:19:40.709Z,98275.53
2023-01-09T00:22:09.706Z,98269.38
2023-01-09T00:24:37.417Z,98264.50
2023-01-09T00:27:05.973Z,98276.91
2023-01-09T00:29:33.542Z,98277.53
2023-01-09T00:32:01.063Z,98285.56
2023-01-09T00:34:29.069Z,98290.28
2023-01-09T00:36:57.054Z,98293.44
2023-01-09T00:39:25.963Z,98296.47
2023-01-09T00:41:56.394Z,98294.63
2023-01-09T00:44:25.961Z,98290.94
2023-01-09T00:46:56.702Z,98296.78
2023-01-09T00:49:24.851Z,98298.47
2023-01-09T00:51:55.175Z,98303.00
2023-01-09T00:54:23.590Z,98305.97
2023-01-09T00:56:52.495Z,98304.00
2023-01-09T00:59:19.966Z,98314.00
2023-01-09T01:01:47.556Z,98320.22
2023-01-09T01:04:15.116Z,98310.88
2023-01-09T01:06:42.589Z,98312.53
2023-01-09T01:09:10.092Z,98317.72
2023-01-09T01:11:37.576Z,98322.75
2023-01-09T01:14:06.448Z,98330.09
2023-01-09T01:16:33.984Z,98330.28
2023-01-09T01:19:01.476Z,98341.81
2023-01-09T01:21:28.928Z,98342.81
2023-01-09T01:23:56.366Z,98352.19
2023-01-09T01:26:24.408Z,98349.69
2023-01-09T01:28:51.870Z,98348.16
2023-01-09T01:31:21.289Z,98355.53
2023-01-09T01:33:48.791Z,98364.75
2023-01-09T01:36:16.225Z,98366.78
2023-01-09T01:38:44.509Z,98362.06
2023-01-09T01:41:11.955Z,98363.22
2023-01-09T01:43:52.860Z,98373.78
2023-01-09T01:46:22.093Z,98384.00
2023-01-09T01:48:54.365Z,98381.31
2023-01-09T01:51:25.107Z,98379.31
2023-01-09T01:53:59.643Z,98390.38
2023-01-09T01:56:30.519Z,98389.50
2023-01-09T01:59:03.522Z,98391.03
2023-01-09T02:01:33.003Z,98401.72
2023-01-09T02:04:02.451Z,98400.72
2023-01-09T02:06:31.060Z,98415.13
2023-01-09T02:08:58.724Z,98408.75
2023-01-09T02:11:27.264Z,98409.75
2023-01-09T02:13:54.768Z,98422.84
2023-01-09T02:16:44.623Z,98419.66
2023-01-09T02:19:35.554Z,98429.88
2023-01-09T02:22:12.835Z,98433.38
2023-01-09T02:25:08.482Z,98436.19
2023-01-09T02:28:08.883Z,98445.25
2023-01-09T02:30:43.979Z,98456.63
2023-01-09T02:33:42.633Z,98452.78
2023-01-09T02:36:21.722Z,98450.94
2023-01-09T02:38:59.980Z,98467.69
2023-01-09T02:41:33.435Z,98460.66
2023-01-09T02:44:16.314Z,98463.69
2023-01-09T02:46:45.285Z,98462.00
2023-01-09T02:49:13.809Z,98464.19
2023-01-09T02:51:49.972Z,98470.38
2023-01-09T02:54:29.556Z,98477.19
2023-01-09T02:57:11.801Z,98476.19
2023-01-09T02:59:54.028Z,98479.38
2023-01-09T03:02:39.244Z,98476.88
2023-01-09T03:05:13.809Z,98482.50
2023-01-09T03:07:45.699Z,98490.91
2023-01-09T03:10:20.222Z,98486.06
2023-01-09T03:12:52.720Z,98493.78
2023-01-09T03:15:24.737Z,98493.94
2023-01-09T03:17:55.924Z,98498.97
2023-01-09T03:20:26.208Z,98509.34
2023-01-09T03:22:55.047Z,98510.00
2023-01-09T03:25:22.699Z,98504.50
2023-01-09T03:27:54.123Z,98509.84
2023-01-09T03:30:21.998Z,98509.53
2023-01-09T03:32:50.129Z,98495.81
2023-01-09T03:35:19.023Z,98510.72
2023-01-09T03:37:46.819Z,98512.53
2023-01-09T03:40:14.704Z,98511.88
2023-01-09T03:42:42.295Z,98513.22
2023-01-09T03:45:10.336Z,98523.41
2023-01-09T03:47:37.815Z,98531.47
2023-01-09T03:50:06.361Z,98535.34
2023-01-09T03:52:35.366Z,98529.28
2023-01-09T03:55:02.940Z,98527.63
2023-01-09T03:57:30.420Z,98528.31
2023-01-09T03:59:57.901Z,98535.84
2023-01-09T04:02:25.415Z,98542.06
2023-01-09T04:04:53.075Z,98536.72
2023-01-09T04:07:20.492Z,98538.84
2023-01-09T04:09:49.930Z,98538.88
2023-01-09T04:12:17.546Z,98549.06
2023-01-09T04:14:45.136Z,98546.38
2023-01-09T04:17:12.626Z,98549.22
2023-01-09T04:19:40.096Z,98553.09
2023-01-09T04:22:08.397Z,98553.44
2023-01-09T04:24:36.373Z,98561.78
2023-01-09T04:27:05.393Z,98569.53
2023-01-09T04:29:32.920Z,98569.84
2023-01-09T04:32:00.495Z,98563.97
2023-01-09T04:34:28.117Z,98562.13
2023-01-09T04:36:55.737Z,98566.16
2023-01-09T04:39:23.479Z,98576.06
2023-01-09T04:41:51.016Z,98581.13
2023-01-09T04:44:21.785Z,98584.03
2023-01-09T04:46:49.666Z,98595.72
2023-01-09T04:49:17.316Z,98586.41
2023-01-09T04:51:44.838Z,98584.94
2023-01-09T04:54:12.340Z,98590.63
2023-01-09T04:56:40.220Z,98602.00
2023-01-09T04:59:08.153Z,98604.34
2023-01-09T05:01:37.496Z,98603.97
2023-01-09T05:04:05.987Z,98598.09
2023-01-09T05:06:33.618Z,98605.34
2023-01-09T05:09:01.696Z,98607.56
2023-01-09T05:11:29.401Z,98609.19
2023-01-09T05:13:57.230Z,98612.38
2023-01-09T05:16:24.984Z,98615.91
2023-01-09T05:18:53.901Z,98614.41
2023-01-09T05:21:21.586Z,98610.88
2023-01-09T05:23:49.180Z,98618.25
2023-01-09T05:26:16.690Z,98614.41
2023-01-09T05:28:44.090Z,98618.25
2023-01-09T05:31:11.699Z,98621.94
2023-01-09T05:33:39.309Z,98616.91
2023-01-09T05:36:09.493Z,98614.53
2023-01-09T05:38:37.132Z,98619.91
2023-01-09T05:41:04.788Z,98626.13
2023-01-09T05:43:32.222Z,98618.09
2023-01-09T05:45:59.787Z,98619.41
2023-01-09T05:48:27.310Z,98627.31
2023-01-09T05:50:54.923Z,98626.13
2023-01-09T05:53:23.972Z,98634.34
2023-01-09T05:55:51.889Z,98633.09
2023-01-09T05:58:19.352Z,98636.41
2023-01-09T06:00:46.920Z,98637.81
2023-01-09T06:03:14.388Z,98640.47
2023-01-09T06:05:41.913Z,98639.84
2023-01-09T06:08:09.369Z,98640.69
2023-01-09T06:10:38.353Z,98647.09
2023-01-09T06:13:05.949Z,98643.88
2023-01-09T06:15:33.344Z,98644.69
2023-01-09T06:18:00.947Z,98651.41
2023-01-09T06:20:28.688Z,98646.88
2023-01-09T06:22:56.472Z,98646.25
2023-01-09T06:25:24.150Z,98641.94
2023-01-09T06:27:54.031Z,98647.72
2023-01-09T06:30:21.935Z,98650.66
2023-01-09T06:32:50.395Z,98649.94
2023-01-09T06:35:18.788Z,98643.53
2023-01-09T06:37:46.628Z,98647.75
2023-01-09T06:40:15.338Z,98642.19
2023-01-09T06:42:46.483Z,98646.56
2023-01-09T06:45:16.773Z,98652.38
2023-01-09T06:47:44.667Z,98651.50
2023-01-09T06:50:12.984Z,98656.38
2023-01-09T06:52:40.632Z,98654.03
2023-01-09T06:55:09.455Z,98654.97
2023-01-09T06:57:37.502Z,98658.78
2023-01-09T07:00:06.138Z,98655.56
2023-01-09T07:02:35.186Z,98648.56
2023-01-09T07:05:03.005Z,98649.66
2023-01-09T07:07:30.635Z,98646.00
2023-01-09T07:09:58.231Z,98647.97
2023-01-09T07:12:26.594Z,98660.78
2023-01-09T07:14:56.180Z,98661.19
2023-01-09T07:17:25.004Z,98660.78
2023-01-09T07:19:54.112Z,98655.50
2023-01-09T07:22:21.696Z,98646.13
2023-01-09T07:24:49.213Z,98645.28
2023-01-09T07:27:17.892Z,98647.69
2023-01-09T07:29:45.824Z,98644.88
2023-01-09T07:32:13.307Z,98643.00
2023-01-09T07:34:41.020Z,98641.00
2023-01-09T07:37:09.926Z,98639.38
2023-01-09T07:39:37.473Z,98630.41
2023-01-09T07:42:05.147Z,98634.09
2023-01-09T07:44:33.283Z,98628.75
2023-01-09T07:47:01.028Z,98635.47
2023-01-09T07:49:28.479Z,98633.03
2023-01-09T07:51:56.724Z,98632.94
2023-01-09T07:54:25.806Z,98632.41
2023-01-09T07:56:53.324Z,98638.06
2023-01-09T07:59:21.627Z,98625.50
2023-01-09T08:01:49.414Z,98624.63
2023-01-09T08:04:17.138Z,98624.72
2023-01-09T08:06:45.731Z,98617.63
2023-01-09T08:09:13.864Z,98609.50
2023-01-09T08:11:43.015Z,98619.53
2023-01-09T08:14:11.503Z,98615.78
2023-01-09T08:16:39.391Z,98618.22
2023-01-09T08:19:06.957Z,98622.19
2023-01-09T08:21:34.459Z,98626.47
2023-01-09T08:24:02.488Z,98626.94
2023-01-09T08:26:30.819Z,98627.50
2023-01-09T08:29:00.230Z,98624.28
2023-01-09T08:31:27.770Z,98631.78
2023-01-09T08:33:55.392Z,98628.84
2023-01-09T08:36:22.943Z,98628.97
2023-01-09T08:38:50.646Z,98626.63
2023-01-09T08:41:18.132Z,98627.31
2023-01-09T08:43:45.706Z,98630.84
2023-01-09T08:46:21.593Z,98627.22
2023-01-09T08:48:49.467Z,98627.81
2023-01-09T08:51:17.209Z,98628.31
2023-01-09T08:53:44.798Z,98624.09
2023-01-09T08:56:12.374Z,98628.31
2023-01-09T08:58:39.939Z,98630.31
2023-01-09T09:01:08.300Z,98625.78
2023-01-09T09:03:37.708Z,98629.97
2023-01-09T09:06:06.223Z,98628.06
2023-01-09T09:08:33.648Z,98623.31
2023-01-09T09:11:01.462Z,98623.31
2023-01-09T09:13:29.178Z,98617.47
2023-01-09T09:15:56.984Z,98630.75
2023-01-09T09:18:24.671Z,98632.63
2023-01-09T09:20:53.728Z,98626.69
2023-01-09T09:23:21.289Z,98626.97
2023-01-09T09:25:49.030Z,98612.72
2023-01-09T09:28:16.724Z,98621.50
2023-01-09T09:30:44.553Z,98616.31
2023-01-09T09:33:12.581Z,98618.06
2023-01-09T09:35:40.498Z,98620.66
2023-01-09T09:38:11.072Z,98621.03
2023-01-09T09:40:56.911Z,98617.78
2023-01-09T09:43:54.137Z,98620.59
2023-01-09T09:46:30.234Z,98619.84
2023-01-09T09:49:02.812Z,98617.13
2023-01-09T09:51:49.580Z,98610.75
2023-01-09T09:54:24.208Z,98611.03
2023-01-09T09:56:56.819Z,98606.03
2023-01-09T09:59:27.714Z,98601.34
2023-01-09T10:01:59.230Z,98599.75
2023-01-09T10:04:31.048Z,98590.22
2023-01-09T10:07:01.950Z,98582.66
2023-01-09T10:09:40.996Z,98587.16
2023-01-09T10:12:18.238Z,98590.25
2023-01-09T10:14:45.915Z,98605.44
2023-01-09T10:17:29.124Z,98603.25
2023-01-09T10:20:20.301Z,98621.16
2023-01-09T10:22:59.723Z,98617.28
2023-01-09T10:25:37.199Z,98618.13
2023-01-09T10:28:20.935Z,98622.50
2023-01-09T10:30:52.574Z,98629.03
2023-01-09T10:33:35.700Z,98614.84
2023-01-09T10:36:40.508Z,98624.38
2023-01-09T10:39:15.484Z,98620.31
2023-01-09T10:41:54.715Z,98622.88
2023-01-09T10:44:27.641Z,98614.13
2023-01-09T10:46:56.525Z,98630.75
2023-01-09T10:49:24.798Z,98632.16
2023-01-09T10:51:59.429Z,98629.19
2023-01-09T10:54:30.072Z,98619.31
2023-01-09T10:57:06.309Z,98634.50
2023-01-09T10:59:34.073Z,98640.38
2023-01-09T11:02:02.038Z,98636.44
2023-01-09T11:04:32.699Z,98625.97
2023-01-09T11:07:03.500Z,98632.19
2023-01-09T11:09:55.555Z,98644.56
2023-01-09T11:12:26.451Z,98645.31
2023-01-09T11:14:53.983Z,98647.34
2023-01-09T11:17:27.279Z,98637.66
2023-01-09T11:20:03.100Z,98637.09
2023-01-09T11:22:43.342Z,98658.81
2023-01-09T11:25:13.891Z,98652.66
2023-01-09T11:27:43.400Z,98668.47
2023-01-09T11:30:18.307Z,98662.44
2023-01-09T11:32:47.519Z,98665.50
2023-01-09T11:35:19.859Z,98666.56
2023-01-09T11:37:49.887Z,98665.66
2023-01-09T11:40:20.713Z,98673.50
2023-01-09T11:43:14.570Z,98673.75
2023-01-09T11:45:56.375Z,98682.81
2023-01-09T11:48:40.949Z,98683.06
2023-01-09T11:51:21.089Z,98688.28
2023-01-09T11:54:01.255Z,98685.66
2023-01-09T11:56:29.923Z,98687.72
2023-01-09T11:58:59.555Z,98688.69
2023-01-09T12:01:45.494Z,98682.34
2023-01-09T12:04:21.333Z,98681.13
2023-01-09T12:07:00.207Z,98691.88
2023-01-09T12:09:37.320Z,98696.63
2023-01-09T12:12:18.494Z,98716.59
2023-01-09T12:15:10.025Z,98710.38
2023-01-09T12:17:52.706Z,98716.03
2023-01-09T12:20:45.933Z,98722.50
2023-01-09T12:23:25.981Z,98726.69
2023-01-09T12:26:05.888Z,98726.84
2023-01-09T12:28:54.571Z,98724.69
2023-01-09T12:31:40.078Z,98734.25
2023-01-09T12:34:24.960Z,98741.16
2023-01-09T12:37:02.820Z,98747.78
2023-01-09T12:39:37.395Z,98745.94
2023-01-09T12:42:29.259Z,98757.44
2023-01-09T12:45:01.824Z,98752.47
2023-01-09T12:47:45.200Z,98762.38
2023-01-09T12:50:48.196Z,98763.78
2023-01-09T12:53:21.496Z,98772.72
2023-01-09T12:55:54.058Z,98773.38
2023-01-09T12:58:31.079Z,98766.59
2023-01-09T13:01:02.696Z,98776.94
2023-01-09T13:03:37.440Z,98769.91
2023-01-09T13:06:11.356Z,98770.44
2023-01-09T13:08:43.478Z,98777.06
2023-01-09T13:11:20.442Z,98782.09
2023-01-09T13:13:54.702Z,98789.56
2023-01-09T13:16:28.695Z,98791.59
2023-01-09T13:19:03.836Z,98795.25
2023-01-09T13:21:31.976Z,98808.56
2023-01-09T13:24:07.308Z,98804.31
2023-01-09T13:26:40.368Z,98810.63
2023-01-09T13:29:12.971Z,98821.31
2023-01-09T13:31:57.014Z,98821.06
2023-01-09T13:34:29.681Z,98826.13
2023-01-09T13:36:59.105Z,98825.84
2023-01-09T13:39:29.375Z,98826.78
2023-01-09T13:41:59.976Z,98841.06
2023-01-09T13:44:29.034Z,98839.72
2023-01-09T13:46:58.766Z,98840.22
2023-01-09T13:49:30.923Z,98840.44
2023-01-09T13:52:01.247Z,98861.41
2023-01-09T13:55:03.654Z,98862.63
2023-01-09T13:57:34.101Z,98855.78
2023-01-09T14:00:39.232Z,98854.38
2023-01-09T14:03:19.975Z,98860.63
2023-01-09T14:06:11.538Z,98865.88
2023-01-09T14:08:40.661Z,98874.09
2023-01-09T14:11:08.967Z,98866.81
2023-01-09T14:13:41.498Z,98865.44
2023-01-09T14:16:17.946Z,98868.03
2023-01-09T14:18:50.915Z,98864.25
2023-01-09T14:21:20.895Z,98874.09
2023-01-09T14:23:59.232Z,98871.97
2023-01-09T14:26:45.263Z,98875.06
2023-01-09T14:29:44.699Z,98877.22
2023-01-09T14:32:43.795Z,98876.94
2023-01-09T14:35:16.631Z,98873.91
2023-01-09T14:37:55.423Z,98871.59
2023-01-09T14:40:24.276Z,98874.81
2023-01-09T14:42:54.759Z,98879.38
2023-01-09T14:45:24.405Z,98882.91
2023-01-09T14:47:57.160Z,98892.94
2023-01-09T14:50:32.459Z,98884.81
2023-01-09T14:53:05.391Z,98883.16
2023-01-09T14:55:40.416Z,98897.91
2023-01-09T14:58:12.683Z,98906.97
2023-01-09T15:00:49.639Z,98909.00
2023-01-09T15:03:17.585Z,98906.25
2023-01-09T15:05:46.651Z,98918.03
2023-01-09T15:08:20.060Z,98917.72
2023-01-09T15:10:51.176Z,98913.44
2023-01-09T15:13:23.694Z,98929.78
2023-01-09T15:15:51.455Z,98926.94
2023-01-09T15:18:23.454Z,98928.28
2023-01-09T15:20:59.189Z,98922.28
2023-01-09T15:23:30.053Z,98915.38
2023-01-09T15:25:58.369Z,98918.97
2023-01-09T15:28:29.640Z,98927.91
2023-01-09T15:31:03.078Z,98929.38
2023-01-09T15:33:31.501Z,98932.25
2023-01-09T15:35:59.591Z,98929.13
2023-01-09T15:38:31.471Z,98910.50
2023-01-09T15:41:01.213Z,98915.75
2023-01-09T15:43:31.307Z,98930.50
2023-01-09T15:45:59.355Z,98934.03
2023-01-09T15:48:28.927Z,98931.44
2023-01-09T15:51:01.390Z,98932.19
2023-01-09T15:53:30.821Z,98931.97
2023-01-09T15:56:07.741Z,98944.88
2023-01-09T15:58:37.933Z,98966.38
2023-01-09T16:01:08.380Z,98963.84
2023-01-09T16:03:37.378Z,98962.03
2023-01-09T16:06:09.351Z,98967.72
2023-01-09T16:08:41.631Z,98980.06
2023-01-09T16:11:20.752Z,98977.06
2023-01-09T16:13:48.563Z,98987.28
2023-01-09T16:16:25.659Z,98984.56
2023-01-09T16:18:54.516Z,99013.25
2023-01-09T16:21:25.293Z,99003.94
2023-01-09T16:24:25.461Z,99005.28
2023-01-09T16:27:11.083Z,99007.91
2023-01-09T16:29:45.548Z,99015.00
2023-01-09T16:32:19.899Z,99015.09
2023-01-09T16:34:52.337Z,99024.50
2023-01-09T16:37:21.081Z,99013.78
2023-01-09T16:40:25.925Z,99017.75
2023-01-09T16:42:55.827Z,99027.19
2023-01-09T16:45:25.803Z,99026.72
2023-01-09T16:47:53.375Z,99020.53
2023-01-09T16:50:21.145Z,99020.44
2023-01-09T16:52:48.764Z,99031.06
2023-01-09T16:55:18.176Z,99046.47
2023-01-09T16:57:46.064Z,99045.00
2023-01-09T17:00:16.355Z,99042.31
2023-01-09T17:02:44.514Z,99051.66
2023-01-09T17:05:13.208Z,99057.78
2023-01-09T17:07:41.288Z,99059.09
2023-01-09T17:10:21.690Z,99066.84
2023-01-09T17:12:50.016Z,99060.69
2023-01-09T17:15:19.258Z,99065.13
2023-01-09T17:17:46.936Z,99066.03
2023-01-09T17:20:16.456Z,99065.22
2023-01-09T17:22:44.413Z,99074.31
2023-01-09T17:25:15.642Z,99066.72
2023-01-09T17:27:45.957Z,99078.06
2023-01-09T17:30:18.742Z,99072.84
2023-01-09T17:32:46.698Z,99087.00
2023-01-09T17:35:14.673Z,99092.38
2023-01-09T17:37:42.713Z,99091.47
2023-01-09T17:40:18.063Z,99096.13
2023-01-09T17:42:47.115Z,99100.94
2023-01-09T17:45:15.608Z,99108.28
2023-01-09T17:47:43.112Z,99111.47
2023-01-09T17:50:18.210Z,99102.97
2023-01-09T17:52:45.912Z,99100.72
2023-01-09T17:55:13.503Z,99096.97
2023-01-09T17:57:43.203Z,99107.38
2023-01-09T18:00:24.343Z,99109.50
2023-01-09T18:02:51.947Z,99109.44
2023-01-09T18:05:19.746Z,99113.81
2023-01-09T18:07:47.641Z,99115.19
2023-01-09T18:10:17.034Z,99121.53
2023-01-09T18:12:48.254Z,99121.00
2023-01-09T18:15:17.722Z,99120.13
2023-01-09T18:17:46.525Z,99133.03
2023-01-09T18:20:15.063Z,99138.56
2023-01-09T18:22:46.199Z,99140.22
2023-01-09T18:25:13.766Z,99153.22
2023-01-09T18:27:42.210Z,99143.78
2023-01-09T18:30:12.496Z,99142.50
2023-01-09T18:32:41.857Z,99150.00
2023-01-09T18:35:10.077Z,99150.59
2023-01-09T18:37:38.155Z,99157.69
2023-01-09T18:40:06.764Z,99158.47
2023-01-09T18:42:34.282Z,99167.56
2023-01-09T18:45:01.750Z,99167.69
2023-01-09T18:47:29.338Z,99184.56
2023-01-09T18:49:58.433Z,99180.72
2023-01-09T18:52:25.985Z,99184.06
2023-01-09T18:54:53.585Z,99192.97
2023-01-09T18:57:21.337Z,99193.63
2023-01-09T18:59:48.917Z,99191.94
2023-01-09T19:02:20.213Z,99213.63
2023-01-09T19:04:47.890Z,99200.34
2023-01-09T19:07:17.336Z,99212.22
2023-01-09T19:09:45.497Z,99219.97
2023-01-09T19:12:13.254Z,99224.91
2023-01-09T19:14:40.823Z,99214.81
2023-01-09T19:17:08.384Z,99228.59
2023-01-09T19:19:35.923Z,99227.22
2023-01-09T19:22:03.352Z,99227.69
2023-01-09T19:24:32.349Z,99233.41
2023-01-09T19:27:00.663Z,99223.88
2023-01-09T19:29:28.417Z,99234.91
2023-01-09T19:31:56.033Z,99246.19
2023-01-09T19:34:23.612Z,99236.19
2023-01-09T19:36:51.600Z,99236.88
2023-01-09T19:39:19.229Z,99255.88
2023-01-09T19:41:48.128Z,99263.28
2023-01-09T19:44:15.606Z,99265.09
2023-01-09T19:46:43.035Z,99266.31
2023-01-09T19:49:10.612Z,99260.53
2023-01-09T19:51:38.125Z,99270.78
2023-01-09T19:54:08.731Z,99271.88
2023-01-09T19:56:36.409Z,99264.00
2023-01-09T19:59:05.799Z,99265.84
2023-01-09T20:01:35.406Z,99263.41
2023-01-09T20:04:05.547Z,99262.97
2023-01-09T20:06:33.581Z,99265.84
2023-01-09T20:09:02.549Z,99258.81
2023-01-09T20:11:31.615Z,99267.72
2023-01-09T20:13:59.485Z,99273.72
2023-01-09T20:16:30.257Z,99280.94
2023-01-09T20:18:59.769Z,99285.13
2023-01-09T20:21:28.716Z,99292.97
2023-01-09T20:23:58.903Z,99292.63
2023-01-09T20:26:27.652Z,99314.41
2023-01-09T20:28:55.689Z,99314.56
2023-01-09T20:31:24.208Z,99320.44
2023-01-09T20:33:53.131Z,99316.84
2023-01-09T20:36:21.014Z,99310.56
2023-01-09T20:38:48.739Z,99316.28
2023-01-09T20:41:17.259Z,99320.22
2023-01-09T20:43:44.683Z,99317.38
2023-01-09T20:46:12.184Z,99327.59
2023-01-09T20:48:39.651Z,99330.84
2023-01-09T20:51:09.033Z,99326.63
2023-01-09T20:53:36.530Z,99325.19
2023-01-09T20:56:06.269Z,99336.53
2023-01-09T20:58:33.515Z,99342.69
2023-01-09T21:01:06.204Z,99353.66
2023-01-09T21:03:33.913Z,99351.66
2023-01-09T21:06:04.751Z,99362.16
2023-01-09T21:08:34.440Z,99368.34
2023-01-09T21:11:02.281Z,99366.75
2023-01-09T21:13:30.098Z,99370.28
2023-01-09T21:16:01.362Z,99376.50
2023-01-09T21:18:28.945Z,99372.66
2023-01-09T21:20:56.763Z,99377.69
2023-01-09T21:23:24.524Z,99376.50
2023-01-09T21:25:53.474Z,99383.25
2023-01-09T21:28:20.911Z,99384.63
2023-01-09T21:30:48.584Z,99380.94
2023-01-09T21:33:16.841Z,99383.53
2023-01-09T21:35:44.295Z,99386.75
2023-01-09T21:38:12.055Z,99382.69
2023-01-09T21:40:39.600Z,99384.03
2023-01-09T21:43:10.471Z,99383.19
2023-01-09T21:45:38.568Z,99386.09
2023-01-09T21:48:07.033Z,99391.16
2023-01-09T21:50:35.092Z,99395.47
2023-01-09T21:53:02.832Z,99397.88
2023-01-09T21:55:30.430Z,99405.19
2023-01-09T21:57:58.185Z,99402.75
2023-01-09T22:00:28.109Z,99407.22
2023-01-09T22:02:55.936Z,99408.47
2023-01-09T22:05:23.611Z,99416.63
2023-01-09T22:07:51.179Z,99412.66
2023-01-09T22:10:18.961Z,99409.53
2023-01-09T22:12:50.388Z,99419.13
2023-01-09T22:15:17.831Z,99426.47
2023-01-09T22:17:46.742Z,99426.22
2023-01-09T22:20:14.420Z,99422.53
2023-01-09T22:22:41.976Z,99428.31
2023-01-09T22:25:10.144Z,99427.34
2023-01-09T22:27:37.616Z,99437.63
2023-01-09T22:30:06.019Z,99435.50
2023-01-09T22:32:35.093Z,99435.47
2023-01-09T22:35:05.784Z,99434.91
2023-01-09T22:37:34.240Z,99447.75
2023-01-09T22:40:02.091Z,99450.16
2023-01-09T22:42:29.532Z,99458.31
2023-01-09T22:44:56.953Z,99452.09
2023-01-09T22:47:24.391Z,99457.31
2023-01-09T22:49:53.359Z,99446.91
2023-01-09T22:52:23.226Z,99451.72
2023-01-09T22:54:50.735Z,99456.91
2023-01-09T22:57:18.174Z,99447.59
2023-01-09T22:59:45.613Z,99456.50
2023-01-09T23:02:13.189Z,99455.94
2023-01-09T23:04:40.819Z,99451.00
2023-01-09T23:07:08.260Z,99462.44
2023-01-09T23:09:37.483Z,99481.75
2023-01-09T23:12:05.814Z,99480.88
2023-01-09T23:14:35.617Z,99473.94
2023-01-09T23:17:02.706Z,99476.91
2023-01-09T23:19:30.654Z,99478.94
2023-01-09T23:21:58.216Z,99489.09
2023-01-09T23:24:27.933Z,99485.00
2023-01-09T23:26:58.079Z,99484.84
2023-01-09T23:29:26.338Z,99500.38
2023-01-09T23:31:54.034Z,99498.78
2023-01-09T23:34:22.937Z,99487.25
2023-01-09T23:36:51.120Z,99495.16
2023-01-09T23:39:18.682Z,99508.09
2023-01-09T23:41:46.148Z,99492.72
2023-01-09T23:44:15.078Z,99493.03
2023-01-09T23:46:42.505Z,99487.97
2023-01-09T23:49:10.129Z,99485.69
2023-01-09T23:51:37.535Z,99491.03
2023-01-09T23:54:06.962Z,99488.94
2023-01-09T23:56:34.815Z,99486.41
2023-01-09T23:59:04.744Z,99487.38
